Time;durP1;ratioP1;P1;durP2;ratioP2;P2;SDS_P1;SDS_P2;PMS_P1;PMS_P2;Temp;Humidity;BMP_temperature;BMP_pressure;BME280_temperature;BME280_humidity;BME280_pressure;Samples;Min_cycle;Max_cycle;Signal;HPM_P1;HPM_P2
2023/10/03 00:00:31;;;;;;;0.40;0.20;;;;;;;14.15;100.00;100202.63;4993224;28;20449;-49
2023/10/03 00:02:59;;;;;;;0.50;0.40;;;;;;;14.14;99.29;100208.91;4993293;28;20481;-49
2023/10/03 00:05:31;;;;;;;0.40;0.20;;;;;;;14.01;99.58;100211.28;4992922;28;20503;-49
2023/10/03 00:08:00;;;;;;;0.40;0.20;;;;;;;13.78;100.00;100209.59;4992918;28;21017;-50
2023/10/03 00:10:30;;;;;;;0.40;0.20;;;;;;;13.56;100.00;100216.75;4974443;28;20462;-49
2023/10/03 00:12:57;;;;;;;0.40;0.20;;;;;;;14.00;100.00;100212.19;4987038;28;20452;-49
2023/10/03 00:15:24;;;;;;;0.40;0.20;;;;;;;14.11;100.00;100209.03;4987577;28;20446;-49
2023/10/03 00:17:52;;;;;;;0.40;0.20;;;;;;;13.97;100.00;100214.13;4992708;28;20994;-49
2023/10/03 00:20:18;;;;;;;0.40;0.20;;;;;;;13.92;100.00;100209.00;4992777;28;20454;-49
2023/10/03 00:22:45;;;;;;;0.40;0.20;;;;;;;13.80;100.00;100205.03;4992918;28;20560;-49
2023/10/03 00:25:21;;;;;;;0.40;0.20;;;;;;;13.69;100.00;100201.94;4973899;28;20579;-49
2023/10/03 00:27:49;;;;;;;0.40;0.20;;;;;;;13.88;99.77;100202.03;4992696;28;20520;-49
2023/10/03 00:30:19;;;;;;;0.40;0.20;;;;;;;13.77;100.00;100191.81;4983655;28;20537;-49
2023/10/03 00:32:48;;;;;;;0.40;0.20;;;;;;;13.75;99.59;100199.03;4988876;28;20462;-49
2023/10/03 00:35:16;;;;;;;0.40;0.20;;;;;;;13.82;99.50;100202.28;4992757;28;20857;-50
2023/10/03 00:37:46;;;;;;;0.40;0.20;;;;;;;13.78;99.50;100200.69;4989185;28;20548;-50
2023/10/03 00:40:27;;;;;;;0.40;0.20;;;;;;;13.80;99.80;100198.81;4975210;28;20553;-49
2023/10/03 00:42:57;;;;;;;0.40;0.20;;;;;;;13.69;99.56;100203.75;4993490;28;20949;-49
2023/10/03 00:45:29;;;;;;;0.40;0.20;;;;;;;13.56;100.00;100198.94;4983694;28;20926;-51
2023/10/03 00:48:00;;;;;;;0.40;0.20;;;;;;;13.31;100.00;100195.56;4987967;28;20479;-49
2023/10/03 00:50:34;;;;;;;0.87;0.87;;;;;;;13.34;100.00;100185.63;4996794;28;20540;-50
2023/10/03 00:53:08;;;;;;;0.40;0.20;;;;;;;13.24;100.00;100173.59;4988700;28;20829;-49
2023/10/03 00:55:40;;;;;;;0.40;0.20;;;;;;;13.25;100.00;100178.00;4996371;28;20922;-50
2023/10/03 00:58:19;;;;;;;0.40;0.20;;;;;;;13.42;100.00;100179.09;4996503;28;20471;-50
2023/10/03 01:00:50;;;;;;;0.40;0.20;;;;;;;13.53;100.00;100167.03;4996635;28;20545;-50
2023/10/03 01:03:27;;;;;;;0.97;0.97;;;;;;;13.67;100.00;100174.44;4996526;28;20460;-50
2023/10/03 01:05:58;;;;;;;0.40;0.20;;;;;;;13.49;99.24;100164.56;4994171;28;20503;-49
2023/10/03 01:08:25;;;;;;;0.40;0.20;;;;;;;13.47;99.50;100161.09;4991069;28;20575;-50
2023/10/03 01:10:51;;;;;;;0.40;0.20;;;;;;;13.45;99.88;100161.16;4977540;28;20521;-50
2023/10/03 01:13:20;;;;;;;0.53;0.53;;;;;;;13.40;100.00;100164.94;4981041;28;20453;-50
2023/10/03 01:15:50;;;;;;;0.40;0.20;;;;;;;13.38;100.00;100158.78;4977959;28;20459;-50
2023/10/03 01:18:20;;;;;;;0.40;0.20;;;;;;;13.31;100.00;100158.19;4969435;28;21086;-50
2023/10/03 01:21:00;;;;;;;0.40;0.20;;;;;;;13.38;100.00;100148.97;4985685;28;20984;-49
2023/10/03 01:23:32;;;;;;;0.40;0.20;;;;;;;13.56;100.00;100144.66;4996192;28;20499;-49
2023/10/03 01:25:59;;;;;;;0.40;0.20;;;;;;;13.52;99.89;100135.91;4996016;28;20523;-49
2023/10/03 01:28:26;;;;;;;0.40;0.20;;;;;;;13.64;98.97;100132.72;4996095;28;21006;-50
2023/10/03 01:30:53;;;;;;;0.40;0.20;;;;;;;13.37;100.00;100135.72;4982935;28;20890;-50
2023/10/03 01:33:26;;;;;;;1.80;1.70;;;;;;;13.26;100.00;100122.81;4995890;28;20567;-50
2023/10/03 01:35:53;;;;;;;0.40;0.20;;;;;;;13.48;100.00;100120.97;4982702;28;20482;-49
2023/10/03 01:38:20;;;;;;;3.60;2.40;;;;;;;13.52;100.00;100122.56;4992629;28;20488;-49
2023/10/03 01:40:58;;;;;;;0.40;0.20;;;;;;;13.54;100.00;100119.81;4995645;28;20511;-50
2023/10/03 01:43:24;;;;;;;0.40;0.20;;;;;;;13.59;100.00;100116.03;4995605;28;20896;-49
2023/10/03 01:45:52;;;;;;;0.40;0.20;;;;;;;13.63;100.00;100124.78;4975801;28;20493;-49
2023/10/03 01:48:20;;;;;;;0.40;0.20;;;;;;;13.49;100.00;100113.81;4995709;28;20477;-49
2023/10/03 01:50:52;;;;;;;0.40;0.30;;;;;;;13.44;100.00;100116.69;4995543;28;20445;-49
2023/10/03 01:53:19;;;;;;;0.40;0.20;;;;;;;13.48;100.00;100112.97;4995350;28;20461;-49
2023/10/03 01:55:46;;;;;;;0.40;0.20;;;;;;;13.46;100.00;100106.81;4995345;28;20851;-50
2023/10/03 01:58:13;;;;;;;0.40;0.20;;;;;;;13.40;100.00;100111.53;4995230;28;20480;-50
2023/10/03 02:00:40;;;;;;;0.40;0.20;;;;;;;13.38;100.00;100100.06;4989108;28;20454;-50
2023/10/03 02:03:11;;;;;;;0.40;0.20;;;;;;;13.56;100.00;100115.28;4995361;28;20473;-50
2023/10/03 02:05:41;;;;;;;0.40;0.20;;;;;;;13.57;100.00;100114.38;4995312;28;20524;-49
2023/10/03 02:08:12;;;;;;;0.40;0.20;;;;;;;13.53;100.00;100096.72;4994951;28;20477;-50
2023/10/03 02:10:39;;;;;;;0.40;0.20;;;;;;;13.53;100.00;100110.06;4971084;28;20542;-51
2023/10/03 02:13:14;;;;;;;0.40;0.20;;;;;;;13.62;100.00;100096.31;4985938;28;20449;-50
2023/10/03 02:15:42;;;;;;;0.40;0.20;;;;;;;13.69;100.00;100092.44;4989273;28;20473;-50
2023/10/03 02:18:09;;;;;;;0.40;0.20;;;;;;;13.62;100.00;100097.19;4995145;28;20469;-50
2023/10/03 02:20:46;;;;;;;0.40;0.20;;;;;;;13.71;100.00;100100.41;4995263;28;20508;-50
2023/10/03 02:23:17;;;;;;;0.40;0.27;;;;;;;13.76;100.00;100099.25;4994962;28;20977;-50
2023/10/03 02:25:45;;;;;;;0.40;0.20;;;;;;;13.58;100.00;100090.25;4986442;28;20486;-49
2023/10/03 02:28:16;;;;;;;0.40;0.20;;;;;;;13.61;100.00;100084.78;4993982;28;20472;-50
2023/10/03 02:30:44;;;;;;;0.40;0.20;;;;;;;13.70;100.00;100090.63;4982172;28;20450;-50
2023/10/03 02:33:14;;;;;;;0.40;0.20;;;;;;;13.70;100.00;100080.81;4994642;28;20449;-50
2023/10/03 02:35:42;;;;;;;0.40;0.20;;;;;;;13.36;100.00;100068.09;4994476;28;20441;-50
2023/10/03 02:38:14;;;;;;;3.43;3.13;;;;;;;13.56;100.00;100072.53;4990453;28;20481;-50
2023/10/03 02:40:41;;;;;;;0.40;0.20;;;;;;;13.44;100.00;100059.75;4989617;28;20477;-49
2023/10/03 02:43:10;;;;;;;0.40;0.20;;;;;;;13.64;100.00;100052.59;4994700;28;20875;-52
2023/10/03 02:45:37;;;;;;;0.40;0.20;;;;;;;13.58;100.00;100046.66;4981928;28;21061;-49
2023/10/03 02:48:14;;;;;;;0.40;0.20;;;;;;;13.80;100.00;100057.22;4994381;28;20576;-50
2023/10/03 02:50:42;;;;;;;1.23;1.23;;;;;;;13.85;100.00;100041.88;4994464;28;20532;-50
2023/10/03 02:53:12;;;;;;;0.40;0.20;;;;;;;13.79;100.00;100043.00;4989054;28;20455;-50
2023/10/03 02:55:40;;;;;;;0.40;0.20;;;;;;;13.88;100.00;100057.75;4990036;28;20533;-50
2023/10/03 02:58:07;;;;;;;0.40;0.20;;;;;;;13.93;100.00;100058.41;4994311;28;20473;-50
2023/10/03 03:00:35;;;;;;;0.40;0.20;;;;;;;14.12;100.00;100047.75;4993940;28;20456;-51
2023/10/03 03:03:05;;;;;;;0.40;0.20;;;;;;;13.93;100.00;100043.22;4993955;28;20528;-50
2023/10/03 03:05:37;;;;;;;0.40;0.20;;;;;;;14.04;100.00;100036.53;4993143;28;20903;-50
2023/10/03 03:10:49;;;;;;;0.40;0.20;;;;;;;14.08;100.00;100036.31;4963270;28;20450;-50
2023/10/03 03:13:15;;;;;;;0.40;0.40;;;;;;;14.14;100.00;100028.00;4989561;28;20445;-50
2023/10/03 03:15:59;;;;;;;0.40;0.20;;;;;;;14.04;100.00;100033.84;4987165;28;20449;-51
2023/10/03 03:18:31;;;;;;;0.40;0.20;;;;;;;14.06;100.00;100019.47;4993995;28;20986;-50
2023/10/03 03:20:58;;;;;;;0.40;0.20;;;;;;;13.98;100.00;100034.13;4993999;28;20504;-50
2023/10/03 03:23:36;;;;;;;1.50;1.40;;;;;;;14.01;100.00;100012.63;4993775;28;20453;-49
2023/10/03 03:26:21;;;;;;;0.40;0.20;;;;;;;14.03;100.00;100024.09;4993822;28;20493;-50
2023/10/03 03:28:49;;;;;;;0.40;0.20;;;;;;;14.11;100.00;100027.28;4993710;28;21002;-49
2023/10/03 03:31:25;;;;;;;0.87;0.87;;;;;;;14.15;100.00;100015.50;4967150;28;20962;-49
2023/10/03 03:34:00;;;;;;;0.40;0.20;;;;;;;14.25;100.00;100022.13;4993725;28;20450;-50
2023/10/03 03:36:30;;;;;;;0.40;0.20;;;;;;;14.24;100.00;100025.75;4959645;28;20451;-50
2023/10/03 03:39:05;;;;;;;0.40;0.30;;;;;;;14.31;100.00;100023.66;4964031;28;20538;-50
2023/10/03 03:41:33;;;;;;;0.40;0.20;;;;;;;14.22;100.00;100019.63;4993660;28;20564;-50
2023/10/03 03:43:59;;;;;;;0.40;0.20;;;;;;;14.08;100.00;100030.09;4991955;28;20472;-50
2023/10/03 03:46:29;;;;;;;0.80;0.80;;;;;;;14.29;100.00;100028.22;4982330;28;20497;-50
2023/10/03 03:48:58;;;;;;;0.40;0.20;;;;;;;14.08;100.00;100020.25;4993525;28;20483;-50
2023/10/03 03:51:25;;;;;;;0.40;0.30;;;;;;;14.11;100.00;100016.56;4993557;28;20469;-50
2023/10/03 03:53:51;;;;;;;0.40;0.20;;;;;;;14.13;100.00;100014.72;4983756;28;20899;-50
2023/10/03 03:56:18;;;;;;;0.40;0.20;;;;;;;14.08;100.00;100017.59;4993421;28;20450;-51
2023/10/03 03:58:45;;;;;;;0.40;0.20;;;;;;;14.14;100.00;100011.97;4993096;28;20935;-50
2023/10/03 04:01:20;;;;;;;0.40;0.20;;;;;;;14.16;100.00;100011.91;4993156;28;20454;-50
2023/10/03 04:03:51;;;;;;;0.40;0.20;;;;;;;14.15;100.00;100008.34;4977778;28;20547;-50
2023/10/03 04:06:20;;;;;;;0.40;0.20;;;;;;;14.23;100.00;100006.16;4979132;28;20535;-50
2023/10/03 04:08:48;;;;;;;0.40;0.20;;;;;;;14.25;100.00;100011.44;4969890;28;21054;-49
2023/10/03 04:11:32;;;;;;;0.40;0.20;;;;;;;14.24;100.00;100007.03;4974961;28;20971;-50
2023/10/03 04:14:00;;;;;;;0.40;0.20;;;;;;;14.22;100.00;99999.09;4974707;28;20515;-49
2023/10/03 04:16:27;;;;;;;0.40;0.20;;;;;;;14.29;100.00;99993.47;4989080;28;20477;-49
2023/10/03 04:18:54;;;;;;;0.40;0.20;;;;;;;14.33;100.00;99992.38;4986647;28;20990;-49
2023/10/03 04:21:21;;;;;;;0.40;0.20;;;;;;;14.10;100.00;99997.00;4993251;28;20465;-49
2023/10/03 04:23:49;;;;;;;0.40;0.20;;;;;;;14.05;100.00;99996.38;4992901;28;20551;-49
2023/10/03 04:26:16;;;;;;;0.40;0.20;;;;;;;14.08;100.00;99993.53;4992667;28;20998;-49
2023/10/03 04:28:42;;;;;;;0.40;0.20;;;;;;;14.13;100.00;99996.00;4985472;28;21065;-49
2023/10/03 04:31:09;;;;;;;0.40;0.20;;;;;;;14.18;100.00;99993.97;4984562;28;20503;-49
2023/10/03 04:33:35;;;;;;;0.40;0.20;;;;;;;14.26;100.00;99982.94;4975618;28;20457;-49
2023/10/03 04:36:04;;;;;;;0.40;0.20;;;;;;;14.09;100.00;99986.38;4980974;28;20443;-49
2023/10/03 04:38:34;;;;;;;0.40;0.20;;;;;;;14.12;100.00;99992.47;4972220;28;20487;-49
2023/10/03 04:41:02;;;;;;;0.40;0.20;;;;;;;13.98;100.00;99978.91;4985426;28;20508;-49
2023/10/03 04:43:31;;;;;;;0.40;0.20;;;;;;;14.11;100.00;99981.81;4993000;28;20548;-50
2023/10/03 04:45:57;;;;;;;0.40;0.30;;;;;;;14.09;100.00;99986.38;4979984;28;21085;-48
2023/10/03 04:48:24;;;;;;;0.40;0.20;;;;;;;14.06;100.00;99981.19;4993248;28;20504;-49
2023/10/03 04:50:51;;;;;;;0.40;0.20;;;;;;;14.09;100.00;99981.91;4992570;28;20482;-49
2023/10/03 04:53:18;;;;;;;0.40;0.20;;;;;;;14.12;100.00;99975.56;4992545;28;20540;-49
2023/10/03 04:55:47;;;;;;;0.47;0.40;;;;;;;14.16;100.00;99969.13;4983891;28;20451;-49
2023/10/03 04:58:15;;;;;;;0.40;0.20;;;;;;;14.08;100.00;99965.94;4974004;28;20474;-49
2023/10/03 05:00:45;;;;;;;0.40;0.20;;;;;;;14.17;100.00;99966.38;4991501;28;20456;-48
2023/10/03 05:03:13;;;;;;;0.40;0.20;;;;;;;14.15;100.00;99962.91;4991164;28;20449;-49
2023/10/03 05:05:40;;;;;;;0.40;0.20;;;;;;;14.18;100.00;99962.75;4991932;28;20488;-49
2023/10/03 05:08:06;;;;;;;0.40;0.20;;;;;;;13.90;100.00;99967.69;4992493;28;20481;-49
2023/10/03 05:10:36;;;;;;;3.03;2.73;;;;;;;13.90;100.00;99975.72;4972878;28;20458;-49
2023/10/03 05:13:05;;;;;;;0.40;0.20;;;;;;;14.05;100.00;99966.97;4986085;28;20454;-49
2023/10/03 05:15:32;;;;;;;0.40;0.30;;;;;;;13.97;100.00;99979.81;4974473;28;20533;-49
2023/10/03 05:18:00;;;;;;;0.40;0.20;;;;;;;14.00;100.00;99978.81;4991674;28;20497;-51
2023/10/03 05:20:37;;;;;;;0.40;0.20;;;;;;;13.93;100.00;99996.94;4979304;28;20450;-49
2023/10/03 05:23:05;;;;;;;0.40;0.20;;;;;;;13.92;100.00;99992.53;4992438;28;20460;-49
2023/10/03 05:25:36;;;;;;;0.40;0.20;;;;;;;13.98;100.00;99997.63;4992222;28;21058;-49
2023/10/03 05:28:05;;;;;;;0.40;0.30;;;;;;;13.93;100.00;99994.28;4977525;28;20512;-49
2023/10/03 05:30:34;;;;;;;0.40;0.20;;;;;;;14.05;100.00;100014.22;4984716;28;20447;-50
2023/10/03 05:33:00;;;;;;;0.40;0.20;;;;;;;14.05;100.00;99993.69;4994127;28;20482;-50
2023/10/03 05:35:27;;;;;;;0.40;0.20;;;;;;;14.06;100.00;99992.75;4995791;28;20516;-49
2023/10/03 05:37:55;;;;;;;0.40;0.20;;;;;;;13.98;100.00;100005.63;4992397;28;20824;-49
2023/10/03 05:40:22;;;;;;;0.40;0.20;;;;;;;14.05;100.00;100011.53;4995613;28;20962;-53
2023/10/03 05:42:49;;;;;;;0.40;0.20;;;;;;;14.12;100.00;100003.16;4968938;28;20958;-49
2023/10/03 05:45:18;;;;;;;0.50;0.20;;;;;;;14.02;100.00;100004.53;4976443;28;20933;-49
2023/10/03 05:47:46;;;;;;;0.40;0.20;;;;;;;14.04;100.00;99993.78;4995325;28;20552;-49
2023/10/03 05:50:20;;;;;;;0.40;0.20;;;;;;;14.05;100.00;100014.22;4985934;28;20493;-50
2023/10/03 05:52:48;;;;;;;0.40;0.20;;;;;;;14.03;100.00;100014.28;4972117;28;20472;-49
2023/10/03 05:55:14;;;;;;;0.40;0.20;;;;;;;13.97;100.00;100011.88;4986704;28;20458;-49
2023/10/03 05:57:42;;;;;;;0.40;0.20;;;;;;;14.07;100.00;100017.66;4978217;28;20469;-49
2023/10/03 06:00:16;;;;;;;0.40;0.20;;;;;;;14.10;100.00;100022.88;4995299;28;20449;-49
2023/10/03 06:02:43;;;;;;;0.40;0.20;;;;;;;14.19;100.00;100025.13;4995443;28;20927;-49
2023/10/03 06:05:12;;;;;;;0.40;0.20;;;;;;;14.16;100.00;100028.81;4995135;28;21040;-49
2023/10/03 06:07:38;;;;;;;0.40;0.20;;;;;;;14.29;100.00;100023.75;4978600;28;20477;-49
2023/10/03 06:10:05;;;;;;;0.40;0.30;;;;;;;14.29;100.00;100023.75;4980449;28;20482;-50
2023/10/03 06:12:32;;;;;;;0.40;0.30;;;;;;;14.36;100.00;100022.50;4985279;28;20541;-49
2023/10/03 06:14:58;;;;;;;0.40;0.20;;;;;;;14.28;100.00;100014.00;4988812;28;20559;-49
2023/10/03 06:17:25;;;;;;;0.40;0.20;;;;;;;14.46;100.00;100010.44;4995061;28;21022;-49
2023/10/03 06:19:52;;;;;;;0.40;0.20;;;;;;;14.28;100.00;99995.28;4994946;28;20472;-49
2023/10/03 06:22:18;;;;;;;0.40;0.20;;;;;;;14.63;100.00;99992.69;4984395;28;20501;-49
2023/10/03 06:24:45;;;;;;;0.40;0.20;;;;;;;14.65;100.00;99983.63;4991615;28;20453;-49
2023/10/03 06:27:12;;;;;;;0.40;0.20;;;;;;;14.60;100.00;99996.38;4994633;28;20497;-50
2023/10/03 06:29:43;;;;;;;0.40;0.20;;;;;;;14.80;100.00;99998.03;4991030;28;20812;-49
2023/10/03 06:32:10;;;;;;;0.40;0.23;;;;;;;14.87;100.00;100007.50;4986616;28;20446;-49
2023/10/03 06:34:36;;;;;;;0.40;0.20;;;;;;;14.95;100.00;100005.31;4994761;28;20516;-49
2023/10/03 06:37:04;;;;;;;0.40;0.20;;;;;;;15.02;100.00;100011.22;4982699;28;20454;-50
2023/10/03 06:39:31;;;;;;;0.40;0.20;;;;;;;14.99;100.00;100011.38;4990649;28;20492;-50
2023/10/03 06:41:58;;;;;;;0.40;0.20;;;;;;;15.11;100.00;100013.44;4985812;28;20966;-49
2023/10/03 06:44:25;;;;;;;0.40;0.20;;;;;;;15.20;100.00;99999.53;4989501;28;20940;-49
2023/10/03 06:46:52;;;;;;;0.40;0.30;;;;;;;15.31;100.00;100002.53;4986892;28;20504;-50
2023/10/03 06:49:22;;;;;;;0.70;0.70;;;;;;;15.29;100.00;100008.91;4986704;28;20502;-50
2023/10/03 06:51:50;;;;;;;0.40;0.20;;;;;;;15.30;100.00;100016.00;4981181;28;20453;-50
2023/10/03 06:54:16;;;;;;;0.40;0.27;;;;;;;15.55;100.00;100003.03;4994665;28;20451;-49
2023/10/03 06:56:43;;;;;;;0.40;0.20;;;;;;;15.64;100.00;100005.28;4994351;28;20484;-50
2023/10/03 06:59:14;;;;;;;0.40;0.20;;;;;;;15.77;100.00;100015.34;4994439;28;20801;-50
2023/10/03 07:01:41;;;;;;;0.40;0.20;;;;;;;15.94;100.00;100017.94;4994393;28;20446;-50
2023/10/03 07:04:08;;;;;;;0.40;0.20;;;;;;;15.88;100.00;100032.53;4988196;28;20516;-50
2023/10/03 07:06:35;;;;;;;0.40;0.20;;;;;;;16.00;100.00;100033.69;4993770;28;20485;-50
2023/10/03 07:09:06;;;;;;;0.40;0.20;;;;;;;16.11;100.00;100044.69;4982983;28;20574;-52
2023/10/03 07:11:33;;;;;;;0.40;0.20;;;;;;;16.15;100.00;100050.75;4972291;28;20872;-52
2023/10/03 07:14:00;;;;;;;0.40;0.20;;;;;;;16.21;100.00;100043.25;4992642;28;20454;-52
2023/10/03 07:16:30;;;;;;;0.40;0.20;;;;;;;16.20;100.00;100052.22;4988353;28;20454;-52
2023/10/03 07:18:57;;;;;;;0.40;0.20;;;;;;;16.24;100.00;100051.09;4974735;28;20474;-52
2023/10/03 07:21:23;;;;;;;0.40;0.20;;;;;;;16.39;100.00;100056.56;4979806;28;20448;-52
2023/10/03 07:23:53;;;;;;;0.40;0.20;;;;;;;16.33;100.00;100043.50;4979512;28;20832;-52
2023/10/03 07:26:19;;;;;;;0.40;0.30;;;;;;;16.59;100.00;100037.53;4970016;28;20481;-52
2023/10/03 07:28:46;;;;;;;0.40;0.20;;;;;;;16.60;100.00;100039.25;4991064;28;21000;-52
2023/10/03 07:31:13;;;;;;;0.40;0.20;;;;;;;16.79;100.00;100044.44;4980406;28;20538;-52
2023/10/03 07:33:43;;;;;;;0.40;0.20;;;;;;;17.18;100.00;100046.63;4975410;28;20532;-52
2023/10/03 07:36:11;;;;;;;0.40;0.20;;;;;;;17.43;99.32;100044.19;4988396;28;20822;-52
2023/10/03 07:38:37;;;;;;;0.63;0.57;;;;;;;17.58;97.35;100041.50;4957452;28;20522;-52
2023/10/03 07:41:10;;;;;;;0.40;0.20;;;;;;;17.68;98.12;100048.03;4981056;28;20451;-52
2023/10/03 07:43:37;;;;;;;0.40;0.20;;;;;;;17.87;98.34;100051.34;4978622;28;20485;-52
2023/10/03 07:46:03;;;;;;;0.40;0.20;;;;;;;18.09;97.83;100044.59;4980434;28;20930;-52
2023/10/03 07:48:30;;;;;;;0.50;0.50;;;;;;;18.18;98.23;100054.78;4972905;28;20478;-51
2023/10/03 07:50:56;;;;;;;0.40;0.20;;;;;;;18.50;96.82;100039.25;4991556;28;20453;-52
2023/10/03 07:53:23;;;;;;;0.40;0.20;;;;;;;18.72;96.06;100042.31;4982270;28;20460;-51
2023/10/03 07:55:50;;;;;;;0.40;0.20;;;;;;;18.81;95.46;100052.47;4991019;28;20541;-51
2023/10/03 07:58:19;;;;;;;0.40;0.20;;;;;;;18.99;95.21;100052.19;4981951;28;20477;-51
2023/10/03 08:00:46;;;;;;;0.40;0.20;;;;;;;19.08;94.82;100056.97;4990827;28;20458;-51
2023/10/03 08:03:12;;;;;;;0.40;0.20;;;;;;;19.20;94.15;100058.84;4961720;28;20493;-51
2023/10/03 08:05:40;;;;;;;0.40;0.20;;;;;;;19.32;93.18;100070.59;4981312;28;20540;-52
2023/10/03 08:08:07;;;;;;;0.40;0.20;;;;;;;19.55;93.12;100066.38;4993086;28;20459;-52
2023/10/03 08:10:34;;;;;;;0.40;0.20;;;;;;;19.60;92.30;100051.63;4963175;28;20836;-52
2023/10/03 08:13:02;;;;;;;0.40;0.20;;;;;;;19.74;91.16;100064.13;4984294;28;20537;-52
2023/10/03 08:15:31;;;;;;;0.40;0.20;;;;;;;19.81;90.82;100068.13;4983964;28;20511;-52
2023/10/03 08:17:59;;;;;;;0.40;0.20;;;;;;;19.88;90.20;100072.13;4979680;28;20482;-52
2023/10/03 08:20:28;;;;;;;0.40;0.20;;;;;;;19.86;90.29;100078.56;4980795;28;20839;-52
2023/10/03 08:22:55;;;;;;;0.40;0.20;;;;;;;19.98;89.54;100072.31;4989328;28;20793;-51
2023/10/03 08:25:23;;;;;;;0.40;0.20;;;;;;;20.11;89.05;100084.81;4976630;28;20451;-52
2023/10/03 08:27:50;;;;;;;0.40;0.20;;;;;;;20.03;89.79;100083.66;4964132;28;20469;-52
2023/10/03 08:30:28;;;;;;;0.40;0.20;;;;;;;20.02;89.13;100090.03;4970164;28;20536;-49
2023/10/03 08:32:57;;;;;;;0.40;0.20;;;;;;;20.23;88.73;100090.31;4990626;28;20519;-49
2023/10/03 08:35:37;;;;;;;0.40;0.20;;;;;;;20.27;88.63;100105.31;4981535;28;20464;-49
2023/10/03 08:38:06;;;;;;;0.40;0.20;;;;;;;20.39;88.25;100099.91;4974051;28;20535;-49
2023/10/03 08:40:36;;;;;;;0.40;0.20;;;;;;;20.49;88.07;100104.69;4992844;28;20529;-49
2023/10/03 08:43:07;;;;;;;0.40;0.20;;;;;;;20.57;87.90;100105.00;4992993;28;20426;-50
2023/10/03 08:45:52;;;;;;;2.63;1.60;;;;;;;20.67;87.82;100108.72;4980065;28;20417;-50
2023/10/03 08:48:26;;;;;;;0.40;0.20;;;;;;;20.77;86.97;100107.09;4974192;28;20470;-50
2023/10/03 08:50:56;;;;;;;0.40;0.20;;;;;;;20.70;87.17;100113.94;4986617;28;20462;-49
2023/10/03 08:53:27;;;;;;;0.40;0.20;;;;;;;20.59;88.13;100120.09;4992738;28;20446;-49
2023/10/03 08:55:58;;;;;;;0.40;0.20;;;;;;;20.65;87.80;100110.69;4967353;28;20458;-49
2023/10/03 08:58:26;;;;;;;0.40;0.20;;;;;;;20.86;87.26;100103.72;4982823;28;20446;-52
2023/10/03 09:01:03;;;;;;;0.40;0.20;;;;;;;20.95;86.66;100108.41;4982741;28;20436;-50
2023/10/03 09:03:49;;;;;;;0.40;0.20;;;;;;;20.98;86.84;100110.91;4980357;28;20455;-50
2023/10/03 09:06:21;;;;;;;0.40;0.20;;;;;;;21.10;86.99;100108.25;4979663;28;21309;-49
2023/10/03 09:09:07;;;;;;;0.40;0.20;;;;;;;21.07;86.52;100100.38;4972032;28;20497;-49
2023/10/03 09:11:39;;;;;;;0.40;0.20;;;;;;;21.36;86.22;100098.19;4963752;28;20469;-49
2023/10/03 09:14:06;;;;;;;0.40;0.20;;;;;;;21.49;85.38;100094.44;4975545;28;20929;-49
2023/10/03 09:16:39;;;;;;;0.40;0.20;;;;;;;21.53;84.93;100092.38;4989947;28;20445;-50
2023/10/03 09:19:09;;;;;;;0.50;0.20;;;;;;;21.55;85.35;100103.94;4996423;28;20476;-50
2023/10/03 09:21:36;;;;;;;0.40;0.20;;;;;;;21.55;85.02;100117.47;4981181;28;20801;-51
2023/10/03 09:24:15;;;;;;;0.47;0.20;;;;;;;21.60;85.14;100120.66;4970193;28;20440;-50
2023/10/03 09:26:46;;;;;;;0.40;0.20;;;;;;;21.73;84.79;100131.41;4970357;28;20463;-50
2023/10/03 09:29:29;;;;;;;0.40;0.20;;;;;;;21.59;85.09;100127.91;4974314;28;20938;-50
2023/10/03 09:32:13;;;;;;;0.40;0.20;;;;;;;21.75;84.99;100126.72;4976648;28;20503;-51
2023/10/03 09:34:42;;;;;;;0.40;0.20;;;;;;;21.73;84.89;100126.84;4976750;28;20526;-50
2023/10/03 09:37:10;;;;;;;0.40;0.20;;;;;;;21.66;84.87;100125.63;4971209;28;20470;-51
2023/10/03 09:39:51;;;;;;;0.50;0.30;;;;;;;21.75;85.36;100137.53;4984439;28;20484;-48
2023/10/03 09:42:23;;;;;;;0.40;0.20;;;;;;;21.77;85.55;100144.56;4995701;28;20515;-49
2023/10/03 09:44:57;;;;;;;0.40;0.20;;;;;;;21.67;85.58;100148.13;4987310;28;20524;-50
2023/10/03 09:47:34;;;;;;;0.40;0.20;;;;;;;21.83;85.47;100135.13;4993240;28;20571;-50
2023/10/03 09:50:08;;;;;;;0.50;0.30;;;;;;;21.91;85.01;100119.13;4995964;28;20427;-49
2023/10/03 09:52:37;;;;;;;0.43;0.20;;;;;;;21.92;85.37;100115.44;4995718;28;20482;-49
2023/10/03 09:55:17;;;;;;;0.40;0.20;;;;;;;22.08;84.62;100109.75;4995587;28;20785;-50
2023/10/03 09:57:52;;;;;;;0.43;0.20;;;;;;;22.01;84.71;100114.72;4995767;28;20532;-49
2023/10/03 10:00:38;;;;;;;0.40;0.20;;;;;;;21.97;84.71;100113.25;4995824;28;20545;-48
2023/10/03 10:03:08;;;;;;;0.40;0.20;;;;;;;21.96;84.20;100116.09;4995505;28;20445;-50
2023/10/03 10:05:36;;;;;;;0.50;0.30;;;;;;;22.06;84.06;100127.91;4970828;28;20451;-50
2023/10/03 10:08:13;;;;;;;0.50;0.30;;;;;;;21.99;84.18;100129.38;4995369;28;20555;-49
2023/10/03 10:10:41;;;;;;;0.50;0.20;;;;;;;22.14;83.80;100118.22;4975705;28;20541;-50
2023/10/03 10:13:23;;;;;;;0.40;0.20;;;;;;;22.23;84.05;100119.34;4991681;28;20496;-50
2023/10/03 10:16:11;;;;;;;0.50;0.30;;;;;;;22.26;83.16;100129.94;4990068;28;20446;-50
2023/10/03 10:18:44;;;;;;;0.40;0.20;;;;;;;22.40;83.54;100128.81;4972409;28;20540;-50
2023/10/03 10:21:32;;;;;;;0.50;0.20;;;;;;;22.53;82.94;100131.41;4995061;28;20457;-50
2023/10/03 10:24:15;;;;;;;0.40;0.20;;;;;;;22.61;81.85;100118.06;4995153;28;20510;-51
2023/10/03 10:26:48;;;;;;;0.43;0.20;;;;;;;22.61;82.17;100118.06;4994894;28;20493;-50
2023/10/03 10:29:19;;;;;;;0.50;0.20;;;;;;;22.87;81.48;100115.97;4994066;28;20524;-50
2023/10/03 10:31:58;;;;;;;0.40;0.20;;;;;;;23.16;81.55;100117.13;4983479;28;20446;-50
2023/10/03 10:34:40;;;;;;;0.40;0.20;;;;;;;23.36;80.49;100112.75;4994985;28;20431;-50
2023/10/03 10:37:15;;;;;;;0.50;0.20;;;;;;;23.68;79.16;100114.59;4993168;28;20570;-50
2023/10/03 10:39:56;;;;;;;0.50;0.20;;;;;;;23.82;78.95;100122.41;4994901;28;20510;-50
2023/10/03 10:42:26;;;;;;;0.50;0.30;;;;;;;23.84;77.82;100131.28;4994708;28;20488;-50
2023/10/03 10:45:15;;;;;;;0.50;0.20;;;;;;;23.70;77.61;100137.91;4986041;28;20492;-49
2023/10/03 10:47:51;;;;;;;0.50;0.30;;;;;;;23.87;76.48;100131.03;4993555;28;20922;-49
2023/10/03 10:50:21;;;;;;;0.50;0.20;;;;;;;23.76;76.60;100134.69;4994604;28;20548;-50
2023/10/03 10:53:02;;;;;;;0.50;0.30;;;;;;;23.90;76.63;100136.19;4994795;28;20453;-50
2023/10/03 10:55:28;;;;;;;0.50;0.30;;;;;;;23.66;76.86;100131.03;4994408;28;20457;-50
2023/10/03 10:58:08;;;;;;;0.50;0.20;;;;;;;23.88;75.90;100130.91;4994290;28;20568;-50
2023/10/03 11:00:36;;;;;;;0.50;0.20;;;;;;;23.94;76.91;100137.66;4994231;28;20965;-50
2023/10/03 11:03:03;;;;;;;0.97;0.97;;;;;;;23.92;76.99;100132.34;4994370;28;20548;-50
2023/10/03 11:05:52;;;;;;;1.03;0.63;;;;;;;23.93;76.57;100135.94;4981121;28;20449;-50
2023/10/03 11:08:19;;;;;;;0.50;0.30;;;;;;;24.12;77.44;100135.19;4992966;28;20504;-51
2023/10/03 11:10:52;;;;;;;0.50;0.20;;;;;;;24.07;76.52;100126.59;4974794;28;20541;-51
2023/10/03 11:13:23;;;;;;;0.50;0.20;;;;;;;23.99;76.57;100123.69;4990313;28;20540;-49
2023/10/03 11:15:51;;;;;;;0.50;0.20;;;;;;;24.01;77.06;100122.56;4987667;28;20452;-50
2023/10/03 11:18:28;;;;;;;0.50;0.20;;;;;;;24.04;76.83;100118.72;4993829;28;20442;-52
2023/10/03 11:20:57;;;;;;;0.50;0.30;;;;;;;24.24;76.05;100115.09;4993884;28;20461;-52
2023/10/03 11:23:24;;;;;;;0.50;0.30;;;;;;;24.17;75.94;100105.78;4993950;28;20535;-52
2023/10/03 11:25:58;;;;;;;0.50;0.23;;;;;;;24.25;75.11;100097.78;4993632;28;20541;-52
2023/10/03 11:28:28;;;;;;;0.50;0.20;;;;;;;24.30;75.63;100086.56;4967444;28;20508;-52
2023/10/03 11:31:03;;;;;;;0.40;0.20;;;;;;;24.39;74.81;100091.16;4980493;28;20489;-52
2023/10/03 11:33:46;;;;;;;0.50;0.20;;;;;;;24.40;75.07;100087.47;4993603;28;20939;-51
2023/10/03 11:36:14;;;;;;;0.50;0.30;;;;;;;24.37;75.16;100079.56;4993496;28;20475;-49
2023/10/03 11:38:54;;;;;;;0.50;0.50;;;;;;;24.26;75.66;100085.06;4990072;28;20562;-50